KGAG

Gage Airport

Gage, Oklahoma, USA
METAR KGAG 171353Z AUTO 25005KT 9SM CLR M07/M08 A3029 RMK AO2 SLP279 T10671083
Observed Flight Rules
Dec-17 @ 13:53 UTC (42 minutes ago) Visual Flight Rules
Wind Visibility Clouds
250° at 5 knots 9 miles
  • Clear skies
Temperatures Readings
Current -7°C / 19°F
Dewpoint -8°C / 18°F
Humidity 93%
Altimeter 30.29" Hg
Pressure 1027.9 hPa
Elevation 668
METAR KGAG 171353Z AUTO 25005KT 9SM CLR M07/M08 A3029 RMK AO2 SLP279 T10671083
Observed Flight Rules
Dec-17 @ 13:53 UTC
(42 minutes ago)
VFR
Wind Visibility
250° at 5 knots 9 miles
Clouds
  • Clear skies
Temperature Dewpoint
-7°C / 19°F -8°C / 18°F
Humidity Altimeter Pressure
93% 30.29" Hg 1027.9 hPa